86IS weather

Michael Pfister Airport
Roanoke, Illinois, United States

Public forecast

Using degrees Fahrenheit for public forecast. Weather courtesy of forecast.io.

Closest aviation weather report (METAR) to Michael Pfister Airport

Closest report is Marshall County Airport, 15.5 nm (28.8 km) NNW. Retrieved 2020/01/26 01:35 UTC (13 minutes ago):

KC75 260135Z AUTO 27009G14KT 10SM OVC019 00/M02 A2996 RMK AO2 T00021016

Closest aviation forecast (TAF) to Michael Pfister Airport

Closest forecast is General Wayne A. Downing Peoria International Airport, 21.0 nm (38.9 km) WSW. Retrieved 2020-01-26 00:33 UTC (1 hour ago):

TAF KPIA 252331Z 2600/2624 26012KT P6SM OVC025 FM260600 26006KT P6SM OVC025